Time;durP1;ratioP1;P1;durP2;ratioP2;P2;SDS_P1;SDS_P2;PMS_P1;PMS_P2;Temp;Humidity;BMP_temperature;BMP_pressure;BME280_temperature;BME280_humidity;BME280_pressure;Samples;Min_cycle;Max_cycle;Signal;HPM_P1;HPM_P2
2023/08/23 00:01:11;;;;;;;;;;;20.60;92.10;;;;;;5066650;28;19916;-74
2023/08/23 00:03:37;;;;;;;;;;;20.60;92.30;;;;;;5033343;28;20293;-74
2023/08/23 00:06:02;;;;;;;;;;;20.60;92.40;;;;;;5034680;28;19909;-74
2023/08/23 00:08:28;;;;;;;;;;;20.60;92.40;;;;;;5034537;28;19909;-74
2023/08/23 00:10:54;;;;;;;;;;;20.50;92.40;;;;;;5034650;28;19982;-75
2023/08/23 00:13:20;;;;;;;;;;;20.50;92.10;;;;;;5034485;28;20023;-74
2023/08/23 00:15:45;;;;;;;;;;;20.50;92.10;;;;;;5034536;28;19953;-75
2023/08/23 00:18:11;;;;;;;;;;;20.50;92.00;;;;;;5034332;28;20415;-74
2023/08/23 00:20:37;;;;;;;;;;;20.40;92.10;;;;;;5066822;28;19909;-74
2023/08/23 00:23:02;;;;;;;;;;;20.40;92.10;;;;;;5034059;28;19949;-74
2023/08/23 00:25:28;;;;;;;;;;;20.40;92.40;;;;;;5034671;28;20324;-75
2023/08/23 00:27:53;;;;;;;;;;;20.40;92.50;;;;;;5034444;28;19916;-74
2023/08/23 00:30:19;;;;;;;;;;;20.30;92.50;;;;;;5034445;28;19928;-75
2023/08/23 00:32:44;;;;;;;;;;;20.30;92.50;;;;;;5034414;28;19913;-74
2023/08/23 00:35:09;;;;;;;;;;;20.30;92.50;;;;;;5034514;28;20008;-75
2023/08/23 00:37:35;;;;;;;;;;;20.20;92.40;;;;;;5034261;28;19909;-75
2023/08/23 00:40:00;;;;;;;;;;;20.20;92.40;;;;;;5033442;28;19909;-75
2023/08/23 00:42:26;;;;;;;;;;;20.20;92.40;;;;;;5034427;28;19935;-74
2023/08/23 00:44:51;;;;;;;;;;;20.20;92.60;;;;;;5034226;28;19913;-74
2023/08/23 00:47:17;;;;;;;;;;;20.20;92.60;;;;;;5034382;28;19949;-75
2023/08/23 00:49:42;;;;;;;;;;;20.10;92.60;;;;;;5034161;28;19916;-74
2023/08/23 00:52:08;;;;;;;;;;;20.10;92.60;;;;;;5034176;28;19916;-74
2023/08/23 00:54:34;;;;;;;;;;;20.10;92.50;;;;;;5033990;28;20347;-75
2023/08/23 00:57:01;;;;;;;;;;;20.00;92.50;;;;;;5034050;28;19909;-75
2023/08/23 00:59:29;;;;;;;;;;;20.00;92.70;;;;;;5032645;28;20294;-75
2023/08/23 01:01:55;;;;;;;;;;;20.00;92.60;;;;;;5062861;28;19957;-75
2023/08/23 01:04:20;;;;;;;;;;;20.00;92.60;;;;;;5032120;28;19909;-75
2023/08/23 01:06:57;;;;;;;;;;;20.00;92.60;;;;;;5032814;28;20377;-74
2023/08/23 01:09:42;;;;;;;;;;;20.00;92.60;;;;;;5032992;28;19909;-75
2023/08/23 01:12:07;;;;;;;;;;;20.00;92.70;;;;;;5033859;28;19912;-70
2023/08/23 01:14:39;;;;;;;;;;;19.90;92.70;;;;;;5033712;28;19913;-70
2023/08/23 01:17:05;;;;;;;;;;;19.90;92.80;;;;;;5033669;28;19913;-70
2023/08/23 01:19:47;;;;;;;;;;;19.90;92.70;;;;;;5032181;28;19917;-70
2023/08/23 01:22:16;;;;;;;;;;;19.90;92.70;;;;;;5033528;28;19941;-70
2023/08/23 01:24:41;;;;;;;;;;;19.80;92.70;;;;;;5033654;28;19952;-70
2023/08/23 01:27:07;;;;;;;;;;;19.80;92.90;;;;;;5033468;28;20285;-70
2023/08/23 01:29:33;;;;;;;;;;;19.80;92.70;;;;;;5032116;28;19962;-70
2023/08/23 01:32:02;;;;;;;;;;;19.80;92.70;;;;;;5031930;28;19909;-70
2023/08/23 01:34:31;;;;;;;;;;;19.80;92.80;;;;;;5031629;28;20014;-70
2023/08/23 01:36:58;;;;;;;;;;;19.80;92.90;;;;;;5032783;28;19963;-70
2023/08/23 01:39:24;;;;;;;;;;;19.70;92.80;;;;;;5064864;28;19909;-70
2023/08/23 01:41:50;;;;;;;;;;;19.70;92.90;;;;;;5033178;28;20257;-70
2023/08/23 01:44:16;;;;;;;;;;;19.70;92.90;;;;;;5033052;28;20284;-70
2023/08/23 01:46:41;;;;;;;;;;;19.60;92.90;;;;;;5033133;28;20003;-70
2023/08/23 01:49:07;;;;;;;;;;;19.60;92.90;;;;;;5064868;28;19916;-70
2023/08/23 01:51:32;;;;;;;;;;;19.60;92.90;;;;;;5033058;28;19909;-70
2023/08/23 01:53:58;;;;;;;;;;;19.60;93.00;;;;;;5032809;28;19920;-70
2023/08/23 01:56:23;;;;;;;;;;;19.60;93.00;;;;;;5032921;28;20328;-70
2023/08/23 01:58:49;;;;;;;;;;;19.60;92.90;;;;;;5032586;28;19909;-70
2023/08/23 02:01:14;;;;;;;;;;;19.60;92.90;;;;;;5032935;28;20329;-70
2023/08/23 02:03:40;;;;;;;;;;;19.50;93.00;;;;;;5032827;28;20246;-70
2023/08/23 02:06:06;;;;;;;;;;;19.50;93.00;;;;;;5032809;28;20370;-70
2023/08/23 02:08:31;;;;;;;;;;;19.50;93.00;;;;;;5032541;28;19963;-70
2023/08/23 02:10:57;;;;;;;;;;;19.50;93.00;;;;;;5032783;28;19916;-70
2023/08/23 02:13:22;;;;;;;;;;;19.50;93.10;;;;;;5064361;28;19921;-70
2023/08/23 02:15:48;;;;;;;;;;;19.50;93.00;;;;;;5032704;28;20369;-70
2023/08/23 02:18:13;;;;;;;;;;;19.40;93.00;;;;;;5032320;28;19955;-70
2023/08/23 02:20:39;;;;;;;;;;;19.40;93.10;;;;;;5032538;28;19909;-70
2023/08/23 02:23:04;;;;;;;;;;;19.40;93.10;;;;;;5031302;28;20338;-70
2023/08/23 02:25:30;;;;;;;;;;;19.40;93.10;;;;;;5031342;28;20301;-70
2023/08/23 02:27:57;;;;;;;;;;;19.30;93.20;;;;;;5032275;28;20369;-70
2023/08/23 02:30:22;;;;;;;;;;;19.30;93.10;;;;;;5032268;28;19917;-70
2023/08/23 02:32:48;;;;;;;;;;;19.30;93.10;;;;;;5032506;28;19916;-70
2023/08/23 02:35:13;;;;;;;;;;;19.30;93.10;;;;;;5032372;28;20250;-70
2023/08/23 02:37:39;;;;;;;;;;;19.30;93.00;;;;;;5032201;28;19916;-70
2023/08/23 02:40:05;;;;;;;;;;;19.30;93.10;;;;;;5032270;28;19913;-70
2023/08/23 02:42:30;;;;;;;;;;;19.30;93.10;;;;;;5030942;28;19959;-70
2023/08/23 02:44:56;;;;;;;;;;;19.30;93.20;;;;;;5032208;28;19914;-70
2023/08/23 02:47:21;;;;;;;;;;;19.30;93.20;;;;;;5030196;28;19913;-70
2023/08/23 02:49:47;;;;;;;;;;;19.20;93.20;;;;;;5031284;28;19999;-70
2023/08/23 02:52:12;;;;;;;;;;;19.20;93.20;;;;;;5031459;28;19909;-70
2023/08/23 02:54:38;;;;;;;;;;;19.20;93.20;;;;;;5031439;28;19917;-70
2023/08/23 02:57:03;;;;;;;;;;;19.20;93.20;;;;;;5032011;28;19975;-70
2023/08/23 02:59:29;;;;;;;;;;;19.20;93.20;;;;;;5030953;28;19909;-70
2023/08/23 03:01:54;;;;;;;;;;;19.20;93.20;;;;;;5030991;28;19913;-70
2023/08/23 03:04:20;;;;;;;;;;;19.10;93.20;;;;;;5031030;28;19985;-70
2023/08/23 03:06:45;;;;;;;;;;;19.10;93.20;;;;;;5029784;28;20428;-70
2023/08/23 03:09:11;;;;;;;;;;;19.10;93.20;;;;;;5031112;28;19910;-70
2023/08/23 03:11:36;;;;;;;;;;;19.10;93.20;;;;;;5031658;28;19916;-74
2023/08/23 03:14:03;;;;;;;;;;;19.10;93.20;;;;;;5029601;28;19963;-74
2023/08/23 03:16:28;;;;;;;;;;;19.10;93.30;;;;;;5031422;28;19913;-74
2023/08/23 03:18:54;;;;;;;;;;;19.10;93.30;;;;;;5030465;28;19909;-74
2023/08/23 03:21:19;;;;;;;;;;;19.00;93.30;;;;;;5032264;28;20238;-74
2023/08/23 03:23:45;;;;;;;;;;;19.00;93.30;;;;;;5032210;28;19913;-70
2023/08/23 03:26:10;;;;;;;;;;;19.00;93.30;;;;;;5032021;28;19947;-74
2023/08/23 03:28:36;;;;;;;;;;;19.00;93.30;;;;;;5031644;28;19909;-74
2023/08/23 03:31:02;;;;;;;;;;;19.00;93.30;;;;;;5031851;28;19975;-74
2023/08/23 03:33:28;;;;;;;;;;;18.90;93.30;;;;;;5030265;28;20004;-74
2023/08/23 03:35:54;;;;;;;;;;;19.00;93.30;;;;;;5031752;28;19948;-75
2023/08/23 03:38:19;;;;;;;;;;;18.90;93.30;;;;;;5029739;28;19910;-74
2023/08/23 03:40:45;;;;;;;;;;;18.90;93.40;;;;;;5031494;28;19948;-74
2023/08/23 03:43:10;;;;;;;;;;;18.90;93.30;;;;;;5031770;28;19966;-74
2023/08/23 03:45:36;;;;;;;;;;;18.90;93.30;;;;;;5032302;28;20297;-74
2023/08/23 03:48:02;;;;;;;;;;;18.90;93.40;;;;;;5031513;28;19916;-74
2023/08/23 03:50:27;;;;;;;;;;;18.90;93.40;;;;;;5031741;28;20421;-74
2023/08/23 03:52:53;;;;;;;;;;;18.90;93.40;;;;;;5030336;28;19910;-74
2023/08/23 03:55:18;;;;;;;;;;;18.80;93.40;;;;;;5030234;28;19916;-74
2023/08/23 03:57:44;;;;;;;;;;;18.80;93.40;;;;;;5031414;28;19909;-74
2023/08/23 04:00:09;;;;;;;;;;;18.80;93.40;;;;;;5034632;28;20422;-74
2023/08/23 04:02:35;;;;;;;;;;;18.80;93.40;;;;;;5035154;28;19913;-74
2023/08/23 04:05:04;;;;;;;;;;;18.80;93.40;;;;;;5035085;28;19917;-74
2023/08/23 04:07:29;;;;;;;;;;;18.80;93.40;;;;;;5034994;28;20401;-74
2023/08/23 04:09:55;;;;;;;;;;;18.80;93.40;;;;;;5035094;28;19913;-74
2023/08/23 04:12:20;;;;;;;;;;;18.80;93.40;;;;;;5034975;28;19909;-74
2023/08/23 04:14:46;;;;;;;;;;;18.70;93.40;;;;;;5034870;28;19913;-74
2023/08/23 04:17:11;;;;;;;;;;;18.70;93.40;;;;;;5034913;28;20046;-74
2023/08/23 04:19:37;;;;;;;;;;;18.70;93.40;;;;;;5034792;28;19916;-74
2023/08/23 04:22:02;;;;;;;;;;;18.70;93.40;;;;;;5033493;28;19909;-75
2023/08/23 04:24:28;;;;;;;;;;;18.70;93.40;;;;;;5033551;28;20407;-74
2023/08/23 04:26:53;;;;;;;;;;;18.70;93.40;;;;;;5034761;28;19925;-74
2023/08/23 04:29:19;;;;;;;;;;;18.70;93.40;;;;;;5034368;28;19913;-74
2023/08/23 04:31:44;;;;;;;;;;;18.70;93.40;;;;;;5066818;28;20012;-75
2023/08/23 04:34:10;;;;;;;;;;;18.70;93.40;;;;;;5033190;28;19919;-74
2023/08/23 04:36:36;;;;;;;;;;;18.70;93.40;;;;;;5066620;28;20123;-74
2023/08/23 04:39:01;;;;;;;;;;;18.70;93.40;;;;;;5034303;28;19915;-75
2023/08/23 04:41:27;;;;;;;;;;;18.60;93.50;;;;;;5034798;28;19935;-74
2023/08/23 04:43:52;;;;;;;;;;;18.60;93.40;;;;;;5033080;28;19909;-74
2023/08/23 04:46:18;;;;;;;;;;;18.60;93.50;;;;;;5034329;28;19949;-74
2023/08/23 04:48:43;;;;;;;;;;;18.60;93.50;;;;;;5034080;28;19931;-74
2023/08/23 04:51:09;;;;;;;;;;;18.60;93.40;;;;;;5034219;28;19909;-74
2023/08/23 04:53:35;;;;;;;;;;;18.60;93.50;;;;;;5034175;28;19924;-74
2023/08/23 04:56:00;;;;;;;;;;;18.60;93.50;;;;;;5033972;28;19909;-74
2023/08/23 04:58:32;;;;;;;;;;;18.60;93.50;;;;;;5065933;28;19956;-74
2023/08/23 05:00:58;;;;;;;;;;;18.50;93.40;;;;;;5034146;28;19909;-74
2023/08/23 05:03:25;;;;;;;;;;;18.50;93.40;;;;;;5033248;28;20269;-74
2023/08/23 05:05:51;;;;;;;;;;;18.60;93.50;;;;;;5032097;28;19913;-74
2023/08/23 05:08:16;;;;;;;;;;;18.50;93.50;;;;;;5032975;28;20031;-74
2023/08/23 05:10:42;;;;;;;;;;;18.50;93.50;;;;;;5032976;28;19916;-74
2023/08/23 05:13:07;;;;;;;;;;;18.50;93.50;;;;;;5033621;28;19913;-74
2023/08/23 05:15:33;;;;;;;;;;;18.50;93.50;;;;;;5033644;28;20354;-74
2023/08/23 05:17:58;;;;;;;;;;;18.50;93.50;;;;;;5033495;28;19916;-74
2023/08/23 05:20:24;;;;;;;;;;;18.50;93.50;;;;;;5033644;28;19909;-74
2023/08/23 05:22:49;;;;;;;;;;;18.50;93.60;;;;;;5033619;28;20413;-74
2023/08/23 05:25:15;;;;;;;;;;;18.50;93.60;;;;;;5033490;28;19920;-74
2023/08/23 05:27:40;;;;;;;;;;;18.50;93.50;;;;;;5033312;28;20001;-74
2023/08/23 05:30:08;;;;;;;;;;;18.50;93.50;;;;;;5033336;28;19921;-74
2023/08/23 05:32:34;;;;;;;;;;;18.50;93.50;;;;;;5065385;28;19909;-74
2023/08/23 05:34:59;;;;;;;;;;;18.50;93.60;;;;;;5033232;28;19982;-74
2023/08/23 05:37:25;;;;;;;;;;;18.50;93.50;;;;;;5033096;28;19913;-74
2023/08/23 05:39:50;;;;;;;;;;;18.40;93.50;;;;;;5033211;28;19947;-74
2023/08/23 05:42:16;;;;;;;;;;;18.50;93.60;;;;;;5033262;28;19916;-74
2023/08/23 05:44:41;;;;;;;;;;;18.50;93.60;;;;;;5033053;28;20369;-74
2023/08/23 05:47:07;;;;;;;;;;;18.50;93.60;;;;;;5033078;28;19909;-74
2023/08/23 05:49:32;;;;;;;;;;;18.50;93.60;;;;;;5032852;28;19960;-74
2023/08/23 05:51:58;;;;;;;;;;;18.50;93.60;;;;;;5033082;28;20506;-74
2023/08/23 05:54:24;;;;;;;;;;;18.50;93.60;;;;;;5032858;28;19913;-74
2023/08/23 05:56:49;;;;;;;;;;;18.50;93.50;;;;;;5032861;28;19910;-74
2023/08/23 05:59:15;;;;;;;;;;;18.50;93.60;;;;;;5032807;28;19999;-74
2023/08/23 06:01:40;;;;;;;;;;;18.50;93.50;;;;;;5032727;28;20235;-74
2023/08/23 06:04:06;;;;;;;;;;;18.50;93.60;;;;;;5032742;28;19909;-74
2023/08/23 06:06:33;;;;;;;;;;;18.50;93.60;;;;;;5032603;28;19913;-74
2023/08/23 06:08:59;;;;;;;;;;;18.50;93.60;;;;;;5032493;28;20373;-74
2023/08/23 06:11:25;;;;;;;;;;;18.50;93.60;;;;;;5032674;28;20420;-74
2023/08/23 06:13:50;;;;;;;;;;;18.50;93.50;;;;;;5032415;28;19962;-74
2023/08/23 06:16:16;;;;;;;;;;;18.50;93.50;;;;;;5032326;28;19909;-74
2023/08/23 06:18:41;;;;;;;;;;;18.50;93.50;;;;;;5064364;28;20402;-70
2023/08/23 06:21:07;;;;;;;;;;;18.60;93.60;;;;;;5031765;28;19909;-70
2023/08/23 06:23:32;;;;;;;;;;;18.60;93.60;;;;;;5064543;28;19916;-70
2023/08/23 06:25:58;;;;;;;;;;;18.60;93.50;;;;;;5032329;28;19910;-70
2023/08/23 06:28:24;;;;;;;;;;;18.60;93.50;;;;;;5032236;28;19913;-70
2023/08/23 06:30:49;;;;;;;;;;;18.60;93.50;;;;;;5032074;28;19971;-70
2023/08/23 06:33:15;;;;;;;;;;;18.70;93.50;;;;;;5032317;28;19960;-70
2023/08/23 06:35:40;;;;;;;;;;;18.70;93.50;;;;;;5032399;28;19909;-70
2023/08/23 06:38:06;;;;;;;;;;;18.70;93.40;;;;;;5032319;28;19959;-74
2023/08/23 06:40:31;;;;;;;;;;;18.70;93.40;;;;;;5032361;28;20317;-74
2023/08/23 06:42:57;;;;;;;;;;;18.80;93.40;;;;;;5032325;28;19909;-74
2023/08/23 06:45:22;;;;;;;;;;;18.80;93.40;;;;;;5032223;28;20336;-74
2023/08/23 06:47:49;;;;;;;;;;;18.80;93.40;;;;;;5031928;28;20005;-74
2023/08/23 06:50:14;;;;;;;;;;;18.80;93.70;;;;;;5032074;28;20007;-74
2023/08/23 06:52:40;;;;;;;;;;;18.80;93.40;;;;;;5032082;28;19952;-74
2023/08/23 06:55:06;;;;;;;;;;;18.80;93.40;;;;;;5031936;28;19920;-74
2023/08/23 06:57:31;;;;;;;;;;;18.80;93.40;;;;;;5031877;28;19916;-74
2023/08/23 06:59:57;;;;;;;;;;;18.80;93.40;;;;;;5032006;28;19909;-74
2023/08/23 07:02:23;;;;;;;;;;;18.80;93.40;;;;;;5032017;28;19916;-74
2023/08/23 07:04:50;;;;;;;;;;;18.80;93.70;;;;;;5032113;28;19909;-74
2023/08/23 07:07:16;;;;;;;;;;;18.80;93.40;;;;;;5031883;28;19932;-74
2023/08/23 07:09:42;;;;;;;;;;;18.80;93.40;;;;;;5032078;28;19931;-74
2023/08/23 07:12:07;;;;;;;;;;;18.80;93.30;;;;;;5032049;28;20416;-74
2023/08/23 07:14:33;;;;;;;;;;;18.90;93.40;;;;;;5063914;28;19921;-74
2023/08/23 07:16:58;;;;;;;;;;;18.90;93.30;;;;;;5031912;28;20295;-74
2023/08/23 07:19:24;;;;;;;;;;;18.90;93.30;;;;;;5031877;28;19909;-74
2023/08/23 07:21:49;;;;;;;;;;;19.00;93.30;;;;;;5031926;28;19937;-74
2023/08/23 07:24:15;;;;;;;;;;;18.90;93.20;;;;;;5031910;28;19913;-74
2023/08/23 07:26:40;;;;;;;;;;;19.00;93.30;;;;;;5031881;28;20381;-74
2023/08/23 07:29:06;;;;;;;;;;;19.00;93.20;;;;;;5031584;28;19916;-74
2023/08/23 07:31:32;;;;;;;;;;;19.00;93.20;;;;;;5063805;28;19920;-74
2023/08/23 07:33:57;;;;;;;;;;;19.00;93.10;;;;;;5034587;28;19914;-74
2023/08/23 07:36:23;;;;;;;;;;;19.00;93.10;;;;;;5035471;28;19916;-74
2023/08/23 07:38:48;;;;;;;;;;;19.10;93.10;;;;;;5067282;28;19910;-74
2023/08/23 07:41:14;;;;;;;;;;;19.10;93.10;;;;;;5034102;28;20381;-74
2023/08/23 07:43:39;;;;;;;;;;;19.10;93.10;;;;;;5035384;28;19910;-74
2023/08/23 07:46:07;;;;;;;;;;;19.20;93.00;;;;;;5035211;28;19920;-74
2023/08/23 07:48:32;;;;;;;;;;;19.20;93.00;;;;;;5067100;28;20321;-74
2023/08/23 07:51:01;;;;;;;;;;;19.20;93.00;;;;;;5033859;28;19909;-74
2023/08/23 07:53:27;;;;;;;;;;;19.20;92.90;;;;;;5035110;28;19913;-74
2023/08/23 07:55:53;;;;;;;;;;;19.30;92.90;;;;;;5035054;28;20242;-74
2023/08/23 07:58:18;;;;;;;;;;;19.30;92.90;;;;;;5066952;28;19913;-74
2023/08/23 08:00:44;;;;;;;;;;;19.30;92.80;;;;;;5035165;28;19960;-74
2023/08/23 08:03:09;;;;;;;;;;;19.40;92.80;;;;;;5035007;28;19960;-74
2023/08/23 08:05:35;;;;;;;;;;;19.40;92.70;;;;;;5035030;28;19917;-74
2023/08/23 08:08:02;;;;;;;;;;;19.40;92.70;;;;;;5034747;28;19924;-74
2023/08/23 08:10:28;;;;;;;;;;;19.40;92.70;;;;;;5034819;28;19913;-74
2023/08/23 08:12:53;;;;;;;;;;;19.50;92.70;;;;;;5034797;28;19909;-74
2023/08/23 08:15:19;;;;;;;;;;;19.50;92.70;;;;;;5034660;28;19916;-74
2023/08/23 08:17:46;;;;;;;;;;;19.50;92.70;;;;;;5034635;28;19917;-74
2023/08/23 08:20:12;;;;;;;;;;;19.50;92.60;;;;;;5034940;28;19996;-74
2023/08/23 08:22:37;;;;;;;;;;;19.50;92.60;;;;;;5033332;28;19944;-74
2023/08/23 08:25:04;;;;;;;;;;;19.60;92.60;;;;;;5034684;28;19974;-74
2023/08/23 08:27:30;;;;;;;;;;;19.60;92.50;;;;;;5034446;28;19909;-74
2023/08/23 08:29:55;;;;;;;;;;;19.60;92.50;;;;;;5034421;28;19940;-74
2023/08/23 08:32:21;;;;;;;;;;;19.70;92.50;;;;;;5034386;28;19909;-74
2023/08/23 08:34:46;;;;;;;;;;;19.70;92.40;;;;;;5034680;28;19913;-74
2023/08/23 08:37:12;;;;;;;;;;;19.70;92.40;;;;;;5034427;28;19941;-74
2023/08/23 08:39:38;;;;;;;;;;;19.70;92.40;;;;;;5034091;28;19909;-74
2023/08/23 08:42:03;;;;;;;;;;;19.80;92.30;;;;;;5033187;28;19917;-74
2023/08/23 08:44:29;;;;;;;;;;;19.80;92.40;;;;;;5033634;28;19916;-74
2023/08/23 08:46:55;;;;;;;;;;;19.80;92.40;;;;;;5066331;28;19913;-74
2023/08/23 08:49:20;;;;;;;;;;;19.90;92.30;;;;;;5032866;28;19909;-74
2023/08/23 08:51:46;;;;;;;;;;;19.90;92.30;;;;;;5034139;28;19909;-74
2023/08/23 08:54:13;;;;;;;;;;;19.90;92.50;;;;;;5033992;28;19914;-74
2023/08/23 08:56:39;;;;;;;;;;;19.90;92.20;;;;;;5033913;28;20496;-74
2023/08/23 08:59:05;;;;;;;;;;;20.00;92.20;;;;;;5033842;28;20028;-74
2023/08/23 09:01:32;;;;;;;;;;;20.00;92.20;;;;;;5033918;28;19916;-74
2023/08/23 09:03:58;;;;;;;;;;;20.00;92.10;;;;;;5032748;28;19909;-74
2023/08/23 09:06:24;;;;;;;;;;;20.10;92.10;;;;;;5033818;28;19992;-74
2023/08/23 09:08:50;;;;;;;;;;;20.10;92.00;;;;;;5033641;28;19908;-74
2023/08/23 09:11:16;;;;;;;;;;;20.20;92.10;;;;;;5065932;28;19936;-73
2023/08/23 09:13:41;;;;;;;;;;;20.20;92.10;;;;;;5032413;28;19913;-73
2023/08/23 09:16:07;;;;;;;;;;;20.20;92.10;;;;;;5033587;28;19979;-74
2023/08/23 09:18:33;;;;;;;;;;;20.30;92.00;;;;;;5033398;28;19909;-74
2023/08/23 09:20:58;;;;;;;;;;;20.30;91.90;;;;;;5033589;28;19959;-74
2023/08/23 09:23:24;;;;;;;;;;;20.30;91.90;;;;;;5033542;28;19909;-74
2023/08/23 09:25:49;;;;;;;;;;;20.40;92.00;;;;;;5065390;28;19909;-74
2023/08/23 09:28:15;;;;;;;;;;;20.40;91.90;;;;;;5033203;28;20400;-73
2023/08/23 09:30:40;;;;;;;;;;;20.50;91.90;;;;;;5033268;28;20403;-73
2023/08/23 09:33:08;;;;;;;;;;;20.50;91.90;;;;;;5033150;28;20000;-74
2023/08/23 09:35:34;;;;;;;;;;;20.50;91.90;;;;;;5033327;28;20012;-74
2023/08/23 09:37:59;;;;;;;;;;;20.60;91.80;;;;;;5033021;28;20004;-73
2023/08/23 09:40:27;;;;;;;;;;;20.60;91.80;;;;;;5033257;28;19913;-74
2023/08/23 09:42:52;;;;;;;;;;;20.70;91.70;;;;;;5033288;28;19909;-74
2023/08/23 09:45:19;;;;;;;;;;;20.70;91.60;;;;;;5032633;28;20440;-74
2023/08/23 09:47:51;;;;;;;;;;;20.70;91.60;;;;;;5031069;28;19920;-74
2023/08/23 09:50:21;;;;;;;;;;;20.80;91.60;;;;;;5064444;28;19971;-73
2023/08/23 09:52:49;;;;;;;;;;;20.80;91.60;;;;;;5031837;28;19978;-73
2023/08/23 09:55:15;;;;;;;;;;;20.90;91.50;;;;;;5032310;28;19982;-74
2023/08/23 09:57:41;;;;;;;;;;;20.90;91.50;;;;;;5030050;28;19916;-73
2023/08/23 10:00:07;;;;;;;;;;;21.00;91.50;;;;;;5031933;28;20365;-73
2023/08/23 10:02:32;;;;;;;;;;;21.00;91.40;;;;;;5031870;28;20373;-73
2023/08/23 10:05:00;;;;;;;;;;;21.10;91.40;;;;;;5032910;28;19916;-70
2023/08/23 10:07:26;;;;;;;;;;;21.10;91.30;;;;;;5032694;28;20312;-70
2023/08/23 10:09:51;;;;;;;;;;;21.10;91.30;;;;;;5032810;28;19909;-70
2023/08/23 10:12:18;;;;;;;;;;;21.20;91.30;;;;;;5032855;28;20000;-70
2023/08/23 10:14:46;;;;;;;;;;;21.20;91.30;;;;;;5032683;28;19913;-70
2023/08/23 10:17:13;;;;;;;;;;;21.30;91.30;;;;;;5032686;28;19909;-70
2023/08/23 10:19:39;;;;;;;;;;;21.30;91.20;;;;;;5032545;28;19948;-70
2023/08/23 10:22:05;;;;;;;;;;;21.40;91.20;;;;;;5032671;28;19920;-70
2023/08/23 10:24:31;;;;;;;;;;;21.40;91.20;;;;;;5032540;28;20375;-70
2023/08/23 10:27:03;;;;;;;;;;;21.40;91.20;;;;;;5032435;28;19959;-70
2023/08/23 10:29:30;;;;;;;;;;;21.50;91.20;;;;;;5031528;28;20371;-70
2023/08/23 10:31:56;;;;;;;;;;;21.60;91.10;;;;;;5031722;28;20357;-71
2023/08/23 10:34:23;;;;;;;;;;;21.60;91.10;;;;;;5031809;28;19953;-71
2023/08/23 10:36:48;;;;;;;;;;;21.70;91.00;;;;;;5031820;28;19909;-70
2023/08/23 10:39:14;;;;;;;;;;;21.80;91.00;;;;;;5031949;28;19970;-71
2023/08/23 10:41:39;;;;;;;;;;;21.80;91.00;;;;;;5032319;28;20247;-71
2023/08/23 10:44:13;;;;;;;;;;;21.90;91.00;;;;;;5032288;28;20356;-71
2023/08/23 10:46:42;;;;;;;;;;;22.00;90.90;;;;;;5064324;28;19909;-71
2023/08/23 10:49:09;;;;;;;;;;;22.10;90.90;;;;;;5032104;28;19916;-71
2023/08/23 10:51:34;;;;;;;;;;;22.20;90.80;;;;;;5032245;28;19913;-71
2023/08/23 10:54:00;;;;;;;;;;;22.40;90.80;;;;;;5032114;28;19913;-71
2023/08/23 10:56:27;;;;;;;;;;;22.50;91.00;;;;;;5032036;28;19913;-71
2023/08/23 10:58:53;;;;;;;;;;;22.50;90.60;;;;;;5032019;28;19940;-71
2023/08/23 11:01:19;;;;;;;;;;;22.70;90.60;;;;;;5032219;28;19909;-71
2023/08/23 11:03:44;;;;;;;;;;;22.70;90.60;;;;;;5031776;28;19913;-71
2023/08/23 11:06:10;;;;;;;;;;;22.80;90.60;;;;;;5030857;28;19910;-71
2023/08/23 11:08:36;;;;;;;;;;;22.90;90.60;;;;;;5033571;28;19909;-71
2023/08/23 11:11:01;;;;;;;;;;;23.00;90.50;;;;;;5036130;28;19909;-71
2023/08/23 11:13:27;;;;;;;;;;;23.10;90.40;;;;;;5035955;28;19924;-71
2023/08/23 11:15:53;;;;;;;;;;;23.20;90.60;;;;;;5036035;28;19947;-71
2023/08/23 11:18:19;;;;;;;;;;;23.30;90.60;;;;;;5035884;28;19915;-71
2023/08/23 11:20:45;;;;;;;;;;;23.30;90.50;;;;;;5035920;28;20388;-71
2023/08/23 11:23:11;;;;;;;;;;;23.30;90.60;;;;;;5035827;28;19915;-71
2023/08/23 11:25:36;;;;;;;;;;;23.30;90.60;;;;;;5035828;28;19991;-71
2023/08/23 11:28:03;;;;;;;;;;;23.40;90.60;;;;;;5035730;28;20253;-71
2023/08/23 11:30:29;;;;;;;;;;;23.60;90.70;;;;;;5035651;28;20326;-71
2023/08/23 11:32:57;;;;;;;;;;;23.60;90.40;;;;;;5035634;28;19914;-71
2023/08/23 11:35:23;;;;;;;;;;;23.80;90.60;;;;;;5035687;28;19913;-71
2023/08/23 11:37:49;;;;;;;;;;;23.90;90.50;;;;;;5034196;28;19913;-71
2023/08/23 11:40:15;;;;;;;;;;;24.00;90.40;;;;;;5035510;28;19921;-71
2023/08/23 11:42:40;;;;;;;;;;;24.10;90.00;;;;;;5035537;28;19916;-71
2023/08/23 11:45:06;;;;;;;;;;;24.30;90.20;;;;;;5035476;28;20008;-71
2023/08/23 11:47:33;;;;;;;;;;;24.40;90.10;;;;;;5035341;28;19963;-71
2023/08/23 11:49:59;;;;;;;;;;;24.40;89.60;;;;;;5035318;28;19941;-71
2023/08/23 11:52:27;;;;;;;;;;;24.50;90.00;;;;;;5035244;28;19929;-71
2023/08/23 11:54:53;;;;;;;;;;;24.60;90.30;;;;;;5035135;28;19917;-71
2023/08/23 11:57:19;;;;;;;;;;;24.70;90.10;;;;;;5035051;28;19909;-71
2023/08/23 11:59:45;;;;;;;;;;;24.70;90.00;;;;;;5035156;28;19920;-71
2023/08/23 12:02:10;;;;;;;;;;;24.80;89.90;;;;;;5033801;28;19916;-71
2023/08/23 12:04:42;;;;;;;;;;;24.90;89.50;;;;;;5035132;28;19909;-71
2023/08/23 12:07:12;;;;;;;;;;;25.00;90.00;;;;;;5034924;28;19909;-71
2023/08/23 12:09:39;;;;;;;;;;;25.00;89.90;;;;;;5034889;28;19909;-71
2023/08/23 12:12:05;;;;;;;;;;;25.10;89.90;;;;;;5034818;28;19963;-71
2023/08/23 12:14:30;;;;;;;;;;;25.20;90.00;;;;;;5034799;28;20470;-71
2023/08/23 12:16:56;;;;;;;;;;;25.20;89.90;;;;;;5034875;28;19909;-71
2023/08/23 12:19:22;;;;;;;;;;;25.20;90.10;;;;;;5033622;28;20293;-71
2023/08/23 12:21:49;;;;;;;;;;;25.20;89.30;;;;;;5034620;28;19913;-71
2023/08/23 12:24:15;;;;;;;;;;;25.30;89.90;;;;;;5066712;28;19913;-71
2023/08/23 12:26:40;;;;;;;;;;;25.30;90.30;;;;;;5034707;28;20326;-71
2023/08/23 12:29:06;;;;;;;;;;;25.30;90.10;;;;;;5034401;28;19916;-71
2023/08/23 12:31:31;;;;;;;;;;;25.40;90.00;;;;;;5034694;28;19909;-71
2023/08/23 12:33:57;;;;;;;;;;;25.50;90.30;;;;;;5034631;28;20324;-71
2023/08/23 12:36:22;;;;;;;;;;;25.40;90.40;;;;;;5034739;28;19948;-71
2023/08/23 12:38:49;;;;;;;;;;;25.50;90.20;;;;;;5034309;28;20386;-71
2023/08/23 12:41:14;;;;;;;;;;;25.50;90.30;;;;;;5033112;28;19909;-71
2023/08/23 12:43:40;;;;;;;;;;;25.60;90.50;;;;;;5066392;28;20501;-71
2023/08/23 12:46:05;;;;;;;;;;;25.60;90.30;;;;;;5034349;28;19915;-71
2023/08/23 12:48:31;;;;;;;;;;;25.70;90.30;;;;;;5034177;28;19915;-71
2023/08/23 12:50:56;;;;;;;;;;;25.70;90.50;;;;;;5034322;28;20354;-71
2023/08/23 12:53:22;;;;;;;;;;;25.70;90.50;;;;;;5034111;28;20071;-71
2023/08/23 12:55:51;;;;;;;;;;;25.80;90.30;;;;;;5034148;28;19972;-71
2023/08/23 12:58:17;;;;;;;;;;;25.90;90.20;;;;;;5033998;28;19909;-71
2023/08/23 13:00:43;;;;;;;;;;;25.90;90.60;;;;;;5034136;28;19910;-71
2023/08/23 13:03:08;;;;;;;;;;;26.00;90.30;;;;;;5034008;28;19916;-71
2023/08/23 13:05:34;;;;;;;;;;;26.00;90.50;;;;;;5034068;28;19959;-71
2023/08/23 13:07:59;;;;;;;;;;;26.10;90.50;;;;;;5033885;28;19959;-71
2023/08/23 13:10:25;;;;;;;;;;;26.10;90.40;;;;;;5034007;28;19913;-71
2023/08/23 13:12:50;;;;;;;;;;;26.20;90.10;;;;;;5033854;28;19909;-71
2023/08/23 13:15:16;;;;;;;;;;;26.20;90.00;;;;;;5033914;28;20020;-71
2023/08/23 13:17:42;;;;;;;;;;;26.30;90.50;;;;;;5033034;28;20317;-71
2023/08/23 13:20:08;;;;;;;;;;;26.30;89.60;;;;;;5033520;28;19909;-71
2023/08/23 13:22:33;;;;;;;;;;;26.40;90.20;;;;;;5033483;28;19970;-71
2023/08/23 13:24:59;;;;;;;;;;;26.40;90.20;;;;;;5033286;28;19996;-71
2023/08/23 13:27:24;;;;;;;;;;;26.50;90.10;;;;;;5033338;28;19985;-71
2023/08/23 13:29:50;;;;;;;;;;;26.60;90.00;;;;;;5033146;28;19924;-71
2023/08/23 13:32:15;;;;;;;;;;;26.60;89.50;;;;;;5033008;28;20007;-71
2023/08/23 13:34:41;;;;;;;;;;;26.60;88.40;;;;;;5033193;28;20341;-71
2023/08/23 13:37:07;;;;;;;;;;;26.70;89.30;;;;;;5033134;28;19960;-71
2023/08/23 13:39:35;;;;;;;;;;;26.70;87.60;;;;;;5032125;28;21582;-71
2023/08/23 13:42:00;;;;;;;;;;;26.80;89.20;;;;;;5032522;28;19909;-71
2023/08/23 13:44:26;;;;;;;;;;;26.80;88.30;;;;;;5065058;28;20385;-71
2023/08/23 13:46:51;;;;;;;;;;;26.90;89.10;;;;;;5032951;28;19938;-71
2023/08/23 13:49:17;;;;;;;;;;;26.90;88.80;;;;;;5032491;28;20004;-71
2023/08/23 13:51:42;;;;;;;;;;;26.90;89.60;;;;;;5032097;28;20031;-71
2023/08/23 13:54:08;;;;;;;;;;;26.90;89.60;;;;;;5030756;28;19913;-71
2023/08/23 13:56:33;;;;;;;;;;;27.00;87.80;;;;;;5032126;28;19997;-71
2023/08/23 13:58:59;;;;;;;;;;;27.10;88.60;;;;;;5031804;28;20389;-71
2023/08/23 14:01:25;;;;;;;;;;;27.10;88.10;;;;;;5032114;28;20405;-71
2023/08/23 14:03:51;;;;;;;;;;;27.20;86.50;;;;;;5032281;28;19909;-71
2023/08/23 14:06:16;;;;;;;;;;;27.20;89.00;;;;;;5032590;28;19909;-71
2023/08/23 14:08:42;;;;;;;;;;;27.20;89.40;;;;;;5032268;28;19909;-71